Time;durP1;ratioP1;P1;durP2;ratioP2;P2;SDS_P1;SDS_P2;PMS_P1;PMS_P2;Temp;Humidity;BMP_temperature;BMP_pressure;BME280_temperature;BME280_humidity;BME280_pressure;Samples;Min_cycle;Max_cycle;Signal;HPM_P1;HPM_P2
2022/06/19 00:00:51;;;;;;;8.30;4.03;;;;;;;;;;5013810;28;20494;-75
2022/06/19 00:03:41;;;;;;;10.57;4.68;;;;;;;;;;5013476;28;20084;-75
2022/06/19 00:06:08;;;;;;;12.07;5.10;;;;;;;;;;5010392;28;20107;-75
2022/06/19 00:08:34;;;;;;;9.70;5.13;;;;;;;;;;5013567;28;20033;-75
2022/06/19 00:11:00;;;;;;;9.90;5.13;;;;;;;;;;5013471;28;20030;-76
2022/06/19 00:13:27;;;;;;;12.10;5.50;;;;;;;;;;5013323;28;20022;-75
2022/06/19 00:15:54;;;;;;;12.45;5.10;;;;;;;;;;5013144;28;20026;-75
2022/06/19 00:18:20;;;;;;;10.13;5.10;;;;;;;;;;5013413;28;20054;-75
2022/06/19 00:20:46;;;;;;;12.65;5.07;;;;;;;;;;5013583;28;20042;-75
2022/06/19 00:23:12;;;;;;;11.57;5.10;;;;;;;;;;5013241;28;20038;-75
2022/06/19 00:25:39;;;;;;;8.00;4.90;;;;;;;;;;5013285;28;20484;-75
2022/06/19 00:28:05;;;;;;;8.00;5.28;;;;;;;;;;5013083;28;20068;-75
2022/06/19 00:30:32;;;;;;;8.02;4.72;;;;;;;;;;5012943;28;20037;-75
2022/06/19 00:32:58;;;;;;;9.20;4.65;;;;;;;;;;5013679;28;20026;-75
2022/06/19 00:35:28;;;;;;;5.95;4.57;;;;;;;;;;5015808;28;20040;-75
2022/06/19 00:37:54;;;;;;;7.32;4.55;;;;;;;;;;5016825;28;20037;-75
2022/06/19 00:40:21;;;;;;;7.63;3.90;;;;;;;;;;5016894;28;20030;-75
2022/06/19 00:42:47;;;;;;;7.75;3.90;;;;;;;;;;5016821;28;20121;-75
2022/06/19 00:45:32;;;;;;;6.90;4.20;;;;;;;;;;5017214;28;20026;-76
2022/06/19 00:47:59;;;;;;;8.40;4.63;;;;;;;;;;5016761;28;20037;-75
2022/06/19 00:50:30;;;;;;;7.88;4.10;;;;;;;;;;5016489;28;20022;-76
2022/06/19 00:52:56;;;;;;;6.90;4.27;;;;;;;;;;5016910;28;20109;-75
2022/06/19 00:55:28;;;;;;;8.07;4.03;;;;;;;;;;5016668;28;20758;-75
2022/06/19 00:58:03;;;;;;;6.53;4.23;;;;;;;;;;5015722;28;20044;-75
2022/06/19 01:00:30;;;;;;;8.63;4.30;;;;;;;;;;5014114;28;20442;-75
2022/06/19 01:03:16;;;;;;;9.77;4.50;;;;;;;;;;5017808;28;20037;-75
2022/06/19 01:05:44;;;;;;;7.90;5.25;;;;;;;;;;5006727;28;20068;-75
2022/06/19 01:08:11;;;;;;;9.38;5.90;;;;;;;;;;5016125;28;20029;-75
2022/06/19 01:10:39;;;;;;;8.95;5.28;;;;;;;;;;5016141;28;20045;-76
2022/06/19 01:13:05;;;;;;;11.93;6.00;;;;;;;;;;5014715;28;20056;-75
2022/06/19 01:15:31;;;;;;;10.07;5.95;;;;;;;;;;5016166;28;20488;-75
2022/06/19 01:18:00;;;;;;;8.63;5.65;;;;;;;;;;5016044;28;20498;-75
2022/06/19 01:20:27;;;;;;;9.63;5.70;;;;;;;;;;5016037;28;20037;-75
2022/06/19 01:22:59;;;;;;;9.38;5.13;;;;;;;;;;5016235;28;20034;-75
2022/06/19 01:25:31;;;;;;;7.43;4.95;;;;;;;;;;5015004;28;20398;-75
2022/06/19 01:30:45;;;;;;;8.65;4.63;;;;;;;;;;5016112;28;20029;-75
2022/06/19 01:33:13;;;;;;;5.72;4.43;;;;;;;;;;5015811;28;20034;-75
2022/06/19 01:35:41;;;;;;;5.05;4.30;;;;;;;;;;5014200;28;20026;-75
2022/06/19 01:38:17;;;;;;;9.00;4.50;;;;;;;;;;5015955;28;20022;-75
2022/06/19 01:40:45;;;;;;;9.43;4.65;;;;;;;;;;5015706;28;20036;-75
2022/06/19 01:43:12;;;;;;;9.90;5.20;;;;;;;;;;5015548;28;20044;-75
2022/06/19 01:45:39;;;;;;;6.78;4.50;;;;;;;;;;5015340;28;20025;-75
2022/06/19 01:48:05;;;;;;;6.47;4.45;;;;;;;;;;5015651;28;20033;-76
2022/06/19 01:50:32;;;;;;;7.93;4.65;;;;;;;;;;5015772;28;20404;-75
2022/06/19 01:53:07;;;;;;;10.23;4.10;;;;;;;;;;5015693;28;20531;-75
2022/06/19 01:55:34;;;;;;;6.45;4.05;;;;;;;;;;5015794;28;20061;-75
2022/06/19 01:58:01;;;;;;;9.90;4.20;;;;;;;;;;5015515;28;20022;-75
2022/06/19 02:00:28;;;;;;;5.30;4.43;;;;;;;;;;5015449;28;20087;-75
2022/06/19 02:02:59;;;;;;;6.32;4.35;;;;;;;;;;5015015;28;20036;-75
2022/06/19 02:05:25;;;;;;;6.97;4.63;;;;;;;;;;5015043;28;20050;-75
2022/06/19 02:07:51;;;;;;;7.55;4.60;;;;;;;;;;5015333;28;20109;-75
2022/06/19 02:10:17;;;;;;;11.77;4.75;;;;;;;;;;5015310;28;20026;-75
2022/06/19 02:12:43;;;;;;;6.47;4.63;;;;;;;;;;5015254;28;20109;-76
2022/06/19 02:15:10;;;;;;;6.10;4.53;;;;;;;;;;5015078;28;20388;-75
2022/06/19 02:17:38;;;;;;;7.38;5.03;;;;;;;;;;5015330;28;20033;-75
2022/06/19 02:20:05;;;;;;;6.55;5.00;;;;;;;;;;5015238;28;20026;-75
2022/06/19 02:22:31;;;;;;;9.27;5.30;;;;;;;;;;5015250;28;20034;-75
2022/06/19 02:24:57;;;;;;;6.30;4.60;;;;;;;;;;5014982;28;20029;-75
2022/06/19 02:27:26;;;;;;;5.40;4.32;;;;;;;;;;5015063;28;20530;-76
2022/06/19 02:29:52;;;;;;;6.88;5.40;;;;;;;;;;5014853;28;20045;-76
2022/06/19 02:32:27;;;;;;;8.60;5.00;;;;;;;;;;5014697;28;20057;-75
2022/06/19 02:34:54;;;;;;;9.82;4.57;;;;;;;;;;5014923;28;20451;-75
2022/06/19 02:37:22;;;;;;;6.35;4.55;;;;;;;;;;5014737;28;20084;-74
2022/06/19 02:40:06;;;;;;;6.32;4.28;;;;;;;;;;5014827;28;20484;-75
2022/06/19 02:42:41;;;;;;;8.45;4.68;;;;;;;;;;5014751;28;20056;-75
2022/06/19 02:45:14;;;;;;;13.00;5.18;;;;;;;;;;5014525;28;20038;-75
2022/06/19 02:47:41;;;;;;;9.90;4.97;;;;;;;;;;5014678;28;20026;-75
2022/06/19 02:50:09;;;;;;;6.53;5.15;;;;;;;;;;5013317;28;20434;-75
2022/06/19 02:52:36;;;;;;;8.18;5.13;;;;;;;;;;5014732;28;20387;-75
2022/06/19 02:55:02;;;;;;;7.80;4.90;;;;;;;;;;5014289;28;20033;-75
2022/06/19 02:57:28;;;;;;;8.32;5.00;;;;;;;;;;5013945;28;20026;-75
2022/06/19 02:59:54;;;;;;;8.18;5.20;;;;;;;;;;5013287;28;20033;-75
2022/06/19 03:02:20;;;;;;;8.95;5.20;;;;;;;;;;5014415;28;20034;-75
2022/06/19 03:05:07;;;;;;;10.32;5.20;;;;;;;;;;5013101;28;20052;-75
2022/06/19 03:07:33;;;;;;;14.75;5.30;;;;;;;;;;5014333;28;20052;-75
2022/06/19 03:09:59;;;;;;;7.40;5.13;;;;;;;;;;5014060;28;20487;-75
2022/06/19 03:12:25;;;;;;;7.40;5.18;;;;;;;;;;5014251;28;20076;-75
2022/06/19 03:14:51;;;;;;;7.55;4.93;;;;;;;;;;5014179;28;20026;-75
2022/06/19 03:17:19;;;;;;;7.53;4.68;;;;;;;;;;5014289;28;20080;-75
2022/06/19 03:19:45;;;;;;;7.05;5.00;;;;;;;;;;5012796;28;20802;-75
2022/06/19 03:22:11;;;;;;;8.10;5.22;;;;;;;;;;5013846;28;20044;-75
2022/06/19 03:24:38;;;;;;;14.10;4.63;;;;;;;;;;5013942;28;20424;-75
2022/06/19 03:27:05;;;;;;;9.65;4.90;;;;;;;;;;5013950;28;20068;-75
2022/06/19 03:29:31;;;;;;;6.93;4.72;;;;;;;;;;5013621;28;20048;-75
2022/06/19 03:31:57;;;;;;;12.90;4.72;;;;;;;;;;5013551;28;20435;-75
2022/06/19 03:34:23;;;;;;;10.15;4.50;;;;;;;;;;5013808;28;20037;-75
2022/06/19 03:36:49;;;;;;;11.38;4.88;;;;;;;;;;5013901;28;20030;-75
2022/06/19 03:39:16;;;;;;;7.65;4.18;;;;;;;;;;5013506;28;20104;-75
2022/06/19 03:41:42;;;;;;;7.50;5.13;;;;;;;;;;5012638;28;20389;-74
2022/06/19 03:44:08;;;;;;;7.72;5.32;;;;;;;;;;5012327;28;20033;-75
2022/06/19 03:46:34;;;;;;;9.35;5.10;;;;;;;;;;5013449;28;20026;-75
2022/06/19 03:49:00;;;;;;;7.35;4.68;;;;;;;;;;5013539;28;20046;-76
2022/06/19 03:51:27;;;;;;;9.23;5.03;;;;;;;;;;5013462;28;20034;-76
2022/06/19 03:53:54;;;;;;;9.27;5.63;;;;;;;;;;5012208;28;20380;-75
2022/06/19 03:56:22;;;;;;;8.82;5.60;;;;;;;;;;5013536;28;20531;-75
2022/06/19 03:58:48;;;;;;;8.05;4.93;;;;;;;;;;5013271;28;20480;-75
2022/06/19 04:01:15;;;;;;;7.00;5.35;;;;;;;;;;5013232;28;20029;-76
2022/06/19 04:03:41;;;;;;;6.53;4.75;;;;;;;;;;5013524;28;20022;-75
2022/06/19 04:06:08;;;;;;;9.63;5.28;;;;;;;;;;5013123;28;20120;-76
2022/06/19 04:08:34;;;;;;;7.22;5.05;;;;;;;;;;5013301;28;20510;-75
2022/06/19 04:11:00;;;;;;;9.88;5.13;;;;;;;;;;5013528;28;20022;-76
2022/06/19 04:13:26;;;;;;;11.88;5.40;;;;;;;;;;5013062;28;20030;-76
2022/06/19 04:15:52;;;;;;;8.23;4.93;;;;;;;;;;5013622;28;20037;-75
2022/06/19 04:18:18;;;;;;;6.75;5.32;;;;;;;;;;5012435;28;20116;-75
2022/06/19 04:20:44;;;;;;;8.45;4.53;;;;;;;;;;5013286;28;20456;-76
2022/06/19 04:23:11;;;;;;;7.70;5.22;;;;;;;;;;5011934;28;20395;-75
2022/06/19 04:25:37;;;;;;;7.40;4.97;;;;;;;;;;5013237;28;20094;-76
2022/06/19 04:28:03;;;;;;;7.60;5.20;;;;;;;;;;5013641;28;20088;-79
2022/06/19 04:30:30;;;;;;;8.15;5.35;;;;;;;;;;5013527;28;20025;-78
2022/06/19 04:32:56;;;;;;;8.55;5.40;;;;;;;;;;5013419;28;20026;-78
2022/06/19 04:35:22;;;;;;;9.88;4.97;;;;;;;;;;5013214;28;20083;-78
2022/06/19 04:37:48;;;;;;;5.10;4.60;;;;;;;;;;5013474;28;20037;-78
2022/06/19 04:40:14;;;;;;;7.47;5.20;;;;;;;;;;5013503;28;20025;-79
2022/06/19 04:42:40;;;;;;;8.13;4.82;;;;;;;;;;5011871;28;20061;-80
2022/06/19 04:45:06;;;;;;;6.32;4.88;;;;;;;;;;5013147;28;20037;-79
2022/06/19 04:47:33;;;;;;;10.25;4.45;;;;;;;;;;5013106;28;20483;-78
2022/06/19 04:49:59;;;;;;;9.48;4.97;;;;;;;;;;5013231;28;20030;-78
2022/06/19 04:52:25;;;;;;;7.80;4.97;;;;;;;;;;5015247;28;20109;-78
2022/06/19 04:54:51;;;;;;;8.70;4.10;;;;;;;;;;5036770;28;20333;-78
2022/06/19 04:57:17;;;;;;;10.93;4.53;;;;;;;;;;5034180;28;20010;-79
2022/06/19 04:59:43;;;;;;;8.00;4.50;;;;;;;;;;5013556;28;20026;-79
2022/06/19 05:02:13;;;;;;;6.93;4.50;;;;;;;;;;5012900;28;20045;-78
2022/06/19 05:04:39;;;;;;;4.95;3.97;;;;;;;;;;5012517;28;20054;-78
2022/06/19 05:07:05;;;;;;;6.32;4.47;;;;;;;;;;5013067;28;20487;-78
2022/06/19 05:09:31;;;;;;;7.43;4.25;;;;;;;;;;5012759;28;20049;-79
2022/06/19 05:11:57;;;;;;;5.80;3.90;;;;;;;;;;5012845;28;20026;-80
2022/06/19 05:14:23;;;;;;;4.07;3.08;;;;;;;;;;5012599;28;20041;-78
2022/06/19 05:16:50;;;;;;;5.35;3.03;;;;;;;;;;5012933;28;20026;-78
2022/06/19 05:19:16;;;;;;;4.63;2.90;;;;;;;;;;5012555;28;20407;-79
2022/06/19 05:21:44;;;;;;;5.90;3.40;;;;;;;;;;5016532;28;20037;-79
2022/06/19 05:24:11;;;;;;;7.90;3.15;;;;;;;;;;5016078;28;20026;-75
2022/06/19 05:26:37;;;;;;;6.68;3.00;;;;;;;;;;5016063;28;20026;-75
2022/06/19 05:29:04;;;;;;;4.38;3.13;;;;;;;;;;5013415;28;20021;-75
2022/06/19 05:31:30;;;;;;;7.25;3.10;;;;;;;;;;5015771;28;20515;-76
2022/06/19 05:33:56;;;;;;;5.32;3.10;;;;;;;;;;5016426;28;20963;-76
2022/06/19 05:36:22;;;;;;;4.45;3.17;;;;;;;;;;5016005;28;20034;-75
2022/06/19 05:38:50;;;;;;;6.63;3.10;;;;;;;;;;5016094;28;20022;-75
2022/06/19 05:41:16;;;;;;;4.78;3.08;;;;;;;;;;5015942;28;20236;-75
2022/06/19 05:43:42;;;;;;;7.53;3.35;;;;;;;;;;5015340;28;20033;-75
2022/06/19 05:46:14;;;;;;;6.82;2.70;;;;;;;;;;5015837;28;20025;-76
2022/06/19 05:48:40;;;;;;;5.78;2.80;;;;;;;;;;5015746;28;20109;-76
2022/06/19 05:51:08;;;;;;;8.65;2.95;;;;;;;;;;5015792;28;20385;-75
2022/06/19 05:53:36;;;;;;;6.05;2.80;;;;;;;;;;5015754;28;20054;-75
2022/06/19 05:56:03;;;;;;;4.47;2.97;;;;;;;;;;5015672;28;20045;-75
2022/06/19 05:58:29;;;;;;;6.65;2.85;;;;;;;;;;5015473;28;20111;-75
2022/06/19 06:00:55;;;;;;;6.63;2.88;;;;;;;;;;5015653;28;20030;-75
2022/06/19 06:03:22;;;;;;;5.30;2.83;;;;;;;;;;5016020;28;20104;-75
2022/06/19 06:05:48;;;;;;;3.95;2.60;;;;;;;;;;5015299;28;20053;-75
2022/06/19 06:08:15;;;;;;;7.28;3.22;;;;;;;;;;5015619;28;20022;-75
2022/06/19 06:10:41;;;;;;;6.15;3.10;;;;;;;;;;5015468;28;20057;-75
2022/06/19 06:13:07;;;;;;;8.50;2.83;;;;;;;;;;5015247;28;20026;-75
2022/06/19 06:15:33;;;;;;;6.30;3.13;;;;;;;;;;5015338;28;20026;-75
2022/06/19 06:18:00;;;;;;;4.85;3.10;;;;;;;;;;5015458;28;20033;-74
2022/06/19 06:20:26;;;;;;;6.95;3.35;;;;;;;;;;5015380;28;20018;-75
2022/06/19 06:22:52;;;;;;;4.40;2.92;;;;;;;;;;5015043;28;20058;-75
2022/06/19 06:25:18;;;;;;;3.97;3.13;;;;;;;;;;5015260;28;20033;-75
2022/06/19 06:27:44;;;;;;;10.80;3.88;;;;;;;;;;5015272;28;20028;-75
2022/06/19 06:30:12;;;;;;;5.47;3.13;;;;;;;;;;5015158;28;20022;-75
2022/06/19 06:32:38;;;;;;;4.35;2.45;;;;;;;;;;5014890;28;20036;-75
2022/06/19 06:35:04;;;;;;;6.28;2.80;;;;;;;;;;5015023;28;20030;-75
2022/06/19 06:37:30;;;;;;;8.63;2.83;;;;;;;;;;5014760;28;20361;-75
2022/06/19 06:39:56;;;;;;;8.00;2.63;;;;;;;;;;5014948;28;20367;-76
2022/06/19 06:42:22;;;;;;;3.80;2.50;;;;;;;;;;5014961;28;20132;-75
2022/06/19 06:44:48;;;;;;;5.85;2.67;;;;;;;;;;5015255;28;20144;-75
2022/06/19 06:47:14;;;;;;;2.80;2.50;;;;;;;;;;5014606;28;20058;-76
2022/06/19 06:49:40;;;;;;;6.40;2.53;;;;;;;;;;5015307;28;20026;-75
2022/06/19 06:52:10;;;;;;;3.67;2.42;;;;;;;;;;5014879;28;20032;-76
2022/06/19 06:54:37;;;;;;;6.15;2.45;;;;;;;;;;5014700;28;20045;-71
2022/06/19 06:57:04;;;;;;;9.68;3.20;;;;;;;;;;5014494;28;20041;-71
2022/06/19 06:59:30;;;;;;;6.55;3.10;;;;;;;;;;5014464;28;20527;-73
2022/06/19 07:01:56;;;;;;;6.85;3.10;;;;;;;;;;5014508;28;20064;-72
2022/06/19 07:04:22;;;;;;;9.15;2.70;;;;;;;;;;5014316;28;20029;-72
2022/06/19 07:06:48;;;;;;;6.13;2.70;;;;;;;;;;5013958;28;20504;-72
2022/06/19 07:09:14;;;;;;;4.50;2.60;;;;;;;;;;5014222;28;20061;-72
2022/06/19 07:11:41;;;;;;;6.05;2.95;;;;;;;;;;5014266;28;20437;-72
2022/06/19 07:14:07;;;;;;;5.05;3.42;;;;;;;;;;5014149;28;20483;-72
2022/06/19 07:16:35;;;;;;;6.20;2.28;;;;;;;;;;5013978;28;20037;-72
2022/06/19 07:19:01;;;;;;;5.97;2.60;;;;;;;;;;5014186;28;20034;-72
2022/06/19 07:21:27;;;;;;;5.40;2.67;;;;;;;;;;5013814;28;20033;-72
2022/06/19 07:23:53;;;;;;;3.50;2.42;;;;;;;;;;5013724;28;20365;-72
2022/06/19 07:26:20;;;;;;;9.40;2.97;;;;;;;;;;5013800;28;20030;-72
2022/06/19 07:28:46;;;;;;;4.50;2.80;;;;;;;;;;5013872;28;20380;-72
2022/06/19 07:31:12;;;;;;;7.20;2.40;;;;;;;;;;5013937;28;20384;-72
2022/06/19 07:33:39;;;;;;;5.45;2.60;;;;;;;;;;5013905;28;20065;-72
2022/06/19 07:36:06;;;;;;;6.93;2.50;;;;;;;;;;5013479;28;20392;-72
2022/06/19 07:38:32;;;;;;;5.28;2.60;;;;;;;;;;5013608;28;20033;-72
2022/06/19 07:40:58;;;;;;;9.27;3.20;;;;;;;;;;5013674;28;20085;-72
2022/06/19 07:43:25;;;;;;;7.13;2.83;;;;;;;;;;5013223;28;20040;-72
2022/06/19 07:45:52;;;;;;;5.65;2.35;;;;;;;;;;5013486;28;20112;-72
2022/06/19 07:51:03;;;;;;;8.95;2.30;;;;;;;;;;5010831;28;20084;-72
2022/06/19 07:53:29;;;;;;;3.13;2.50;;;;;;;;;;5010879;28;20037;-72
2022/06/19 07:55:55;;;;;;;5.07;2.55;;;;;;;;;;5010183;28;20053;-72
2022/06/19 07:58:21;;;;;;;5.10;2.70;;;;;;;;;;5010889;28;20029;-72
2022/06/19 08:00:47;;;;;;;4.20;2.22;;;;;;;;;;5012919;28;20026;-72
2022/06/19 08:03:13;;;;;;;6.25;2.70;;;;;;;;;;5012109;28;20057;-72
2022/06/19 08:05:39;;;;;;;4.07;2.50;;;;;;;;;;5012219;28;20057;-73
2022/06/19 08:08:09;;;;;;;4.95;2.65;;;;;;;;;;5013207;28;20083;-72
2022/06/19 08:10:37;;;;;;;6.70;2.45;;;;;;;;;;4991334;28;20056;-72
2022/06/19 08:13:04;;;;;;;4.13;2.30;;;;;;;;;;5027989;28;20029;-72
2022/06/19 08:15:30;;;;;;;6.45;2.78;;;;;;;;;;5032478;28;20117;-72
2022/06/19 08:17:57;;;;;;;10.68;2.72;;;;;;;;;;5032682;28;20111;-73
2022/06/19 08:20:23;;;;;;;8.68;2.65;;;;;;;;;;5030912;28;20030;-72
2022/06/19 08:22:49;;;;;;;3.88;2.40;;;;;;;;;;5032250;28;20026;-73
2022/06/19 08:25:17;;;;;;;2.97;2.10;;;;;;;;;;5032393;28;20030;-73
2022/06/19 08:27:47;;;;;;;6.00;2.70;;;;;;;;;;5030463;28;20037;-72
2022/06/19 08:30:14;;;;;;;10.68;2.42;;;;;;;;;;5012836;28;20108;-72
2022/06/19 08:32:40;;;;;;;3.75;2.15;;;;;;;;;;5012684;28;20494;-73
2022/06/19 08:35:07;;;;;;;3.78;2.35;;;;;;;;;;5012820;28;20447;-72
2022/06/19 08:37:34;;;;;;;5.45;2.03;;;;;;;;;;5012561;28;20101;-72
2022/06/19 08:40:01;;;;;;;5.60;2.33;;;;;;;;;;5012725;28;20065;-73
2022/06/19 08:42:30;;;;;;;3.60;2.03;;;;;;;;;;5012550;28;20025;-73
2022/06/19 08:45:02;;;;;;;5.72;2.00;;;;;;;;;;5013133;28;20117;-73
2022/06/19 08:47:47;;;;;;;5.28;1.90;;;;;;;;;;5012366;28;20041;-73
2022/06/19 08:50:36;;;;;;;7.03;2.33;;;;;;;;;;5012458;28;20041;-73
2022/06/19 08:53:11;;;;;;;5.72;2.25;;;;;;;;;;5009825;28;20048;-74
2022/06/19 08:55:46;;;;;;;2.83;1.95;;;;;;;;;;5015695;28;20018;-73
2022/06/19 08:58:22;;;;;;;5.78;2.10;;;;;;;;;;5015318;28;20117;-71
2022/06/19 09:00:51;;;;;;;6.68;2.08;;;;;;;;;;5016382;28;20104;-69
2022/06/19 09:06:26;;;;;;;7.85;2.22;;;;;;;;;;5015825;28;20104;-72
2022/06/19 09:08:58;;;;;;;4.72;2.15;;;;;;;;;;5016208;28;20030;-72
2022/06/19 09:11:24;;;;;;;6.57;2.50;;;;;;;;;;5016090;28;20105;-72
2022/06/19 09:13:54;;;;;;;7.80;2.30;;;;;;;;;;5014708;28;20057;-74
2022/06/19 09:16:35;;;;;;;4.45;2.63;;;;;;;;;;5015636;28;20026;-71
2022/06/19 09:19:01;;;;;;;;;;;;;;;;;;5014301;28;20434;-72
2022/06/19 09:22:00;;;;;;;6.18;1.98;;;;;;;;;;5012123;28;19907;-71
2022/06/19 09:24:49;;;;;;;5.38;2.33;;;;;;;;;;5003583;28;20042;-71
2022/06/19 09:27:16;;;;;;;6.32;2.10;;;;;;;;;;5015772;28;20038;-71
2022/06/19 09:29:45;;;;;;;4.05;2.58;;;;;;;;;;5015881;28;20029;-72
2022/06/19 09:32:18;;;;;;;5.78;2.30;;;;;;;;;;5015776;28;20026;-71
2022/06/19 09:34:50;;;;;;;3.35;2.25;;;;;;;;;;5015650;28;20034;-72
2022/06/19 09:37:35;;;;;;;3.10;2.20;;;;;;;;;;5032321;28;20132;-72
2022/06/19 09:40:13;;;;;;;12.88;3.33;;;;;;;;;;5032802;28;20100;-71
2022/06/19 09:42:52;;;;;;;5.93;2.90;;;;;;;;;;5033000;28;20033;-71
2022/06/19 09:45:24;;;;;;;6.75;2.55;;;;;;;;;;5035358;28;20064;-71
2022/06/19 09:48:02;;;;;;;4.38;2.30;;;;;;;;;;5035413;28;20052;-71
2022/06/19 09:50:36;;;;;;;6.97;2.50;;;;;;;;;;5035440;28;20029;-71
2022/06/19 09:53:05;;;;;;;4.72;2.38;;;;;;;;;;5035124;28;20026;-70
2022/06/19 09:55:33;;;;;;;6.60;2.47;;;;;;;;;;5034286;28;20383;-70
2022/06/19 09:58:06;;;;;;;7.95;2.67;;;;;;;;;;5035365;28;20490;-71
2022/06/19 10:00:35;;;;;;;2.35;2.00;;;;;;;;;;5034825;28;20030;-70
2022/06/19 10:03:12;;;;;;;3.35;1.92;;;;;;;;;;5033623;28;20171;-70
2022/06/19 10:05:51;;;;;;;7.05;2.10;;;;;;;;;;5034466;28;20045;-70
2022/06/19 10:08:36;;;;;;;5.65;2.45;;;;;;;;;;5034891;28;20025;-70
2022/06/19 10:11:11;;;;;;;8.25;2.45;;;;;;;;;;5034875;28;20021;-72
2022/06/19 10:13:49;;;;;;;5.72;2.72;;;;;;;;;;5035019;28;20025;-71
2022/06/19 10:16:27;;;;;;;5.32;2.33;;;;;;;;;;5034628;28;20030;-71
2022/06/19 10:18:54;;;;;;;4.30;2.30;;;;;;;;;;5034887;28;20059;-71
2022/06/19 10:24:29;;;;;;;4.00;2.38;;;;;;;;;;5035189;28;20087;-72
2022/06/19 10:27:09;;;;;;;6.35;2.40;;;;;;;;;;5023523;28;20554;-71
2022/06/19 10:29:38;;;;;;;5.65;2.30;;;;;;;;;;5033004;28;20017;-71
2022/06/19 10:32:10;;;;;;;11.85;2.90;;;;;;;;;;5034583;28;20028;-71
2022/06/19 10:34:49;;;;;;;4.70;2.45;;;;;;;;;;5034673;28;20022;-71
2022/06/19 10:37:15;;;;;;;7.30;2.40;;;;;;;;;;5034549;28;20056;-70
2022/06/19 10:40:14;;;;;;;4.95;2.70;;;;;;;;;;5034383;28;20025;-71
2022/06/19 10:42:50;;;;;;;4.75;2.55;;;;;;;;;;5022495;28;20399;-71
2022/06/19 10:45:16;;;;;;;6.65;2.30;;;;;;;;;;5034206;28;20036;-70
2022/06/19 10:47:54;;;;;;;5.82;2.35;;;;;;;;;;5034626;28;20022;-71
2022/06/19 10:50:36;;;;;;;6.25;2.40;;;;;;;;;;5034074;28;20403;-71
2022/06/19 10:53:15;;;;;;;7.10;2.75;;;;;;;;;;5032753;28;20109;-72
2022/06/19 10:55:44;;;;;;;5.47;2.35;;;;;;;;;;5031576;28;20036;-73
2022/06/19 10:58:21;;;;;;;4.35;2.33;;;;;;;;;;5031560;28;20383;-73
2022/06/19 11:00:51;;;;;;;9.85;2.55;;;;;;;;;;5032970;28;20026;-70
2022/06/19 11:06:14;;;;;;;18.42;2.78;;;;;;;;;;5033672;28;20107;-71
2022/06/19 11:08:42;;;;;;;9.05;2.63;;;;;;;;;;5034110;28;20025;-71
2022/06/19 11:11:10;;;;;;;8.43;2.25;;;;;;;;;;5033987;28;20018;-70
2022/06/19 11:13:54;;;;;;;8.57;2.35;;;;;;;;;;5034198;28;20025;-70
2022/06/19 11:16:20;;;;;;;4.35;2.25;;;;;;;;;;5033537;28;20392;-71
2022/06/19 11:18:48;;;;;;;6.75;2.90;;;;;;;;;;5033482;28;20480;-71
2022/06/19 11:21:17;;;;;;;5.78;2.40;;;;;;;;;;5033466;28;20030;-71
2022/06/19 11:23:50;;;;;;;8.00;2.80;;;;;;;;;;5031332;28;20033;-73
2022/06/19 11:26:22;;;;;;;8.43;3.00;;;;;;;;;;5030898;28;20546;-72
2022/06/19 11:28:56;;;;;;;10.18;2.67;;;;;;;;;;5031008;28;20033;-71
2022/06/19 11:31:25;;;;;;;8.70;2.78;;;;;;;;;;5033219;28;20025;-73
2022/06/19 11:33:53;;;;;;;9.02;2.60;;;;;;;;;;5033472;28;20026;-71
2022/06/19 11:36:30;;;;;;;4.70;2.15;;;;;;;;;;5034013;28;20017;-71
2022/06/19 11:38:57;;;;;;;7.97;2.70;;;;;;;;;;5033435;28;20072;-71
2022/06/19 11:41:23;;;;;;;7.65;2.38;;;;;;;;;;5033404;28;20036;-72
2022/06/19 11:44:27;;;;;;;8.68;2.40;;;;;;;;;;5033541;28;20029;-70
2022/06/19 11:46:54;;;;;;;5.70;2.72;;;;;;;;;;5011110;28;20029;-71
2022/06/19 11:49:25;;;;;;;6.10;2.70;;;;;;;;;;5011620;28;20034;-71
2022/06/19 11:51:52;;;;;;;4.97;2.50;;;;;;;;;;5022548;28;20049;-70
2022/06/19 11:54:26;;;;;;;7.72;2.67;;;;;;;;;;5032988;28;20032;-71
2022/06/19 11:56:52;;;;;;;6.30;2.72;;;;;;;;;;5033056;28;20075;-71
2022/06/19 11:59:25;;;;;;;5.40;2.70;;;;;;;;;;5032945;28;20034;-72
2022/06/19 12:01:52;;;;;;;5.95;2.47;;;;;;;;;;5032991;28;20030;-71
2022/06/19 12:04:28;;;;;;;5.38;2.63;;;;;;;;;;5033295;28;20030;-70
2022/06/19 12:06:55;;;;;;;7.63;2.53;;;;;;;;;;5033120;28;20049;-71
2022/06/19 12:09:37;;;;;;;4.13;2.10;;;;;;;;;;5032633;28;20041;-70
2022/06/19 12:12:06;;;;;;;10.05;2.15;;;;;;;;;;5033184;28;20471;-71
2022/06/19 12:14:37;;;;;;;5.47;2.67;;;;;;;;;;5032841;28;20505;-71
2022/06/19 12:17:23;;;;;;;8.50;2.58;;;;;;;;;;5031499;28;20021;-73
2022/06/19 12:19:57;;;;;;;6.45;1.80;;;;;;;;;;5032932;28;20034;-71
2022/06/19 12:22:25;;;;;;;10.55;2.10;;;;;;;;;;5032473;28;20043;-70
2022/06/19 12:24:55;;;;;;;6.80;2.72;;;;;;;;;;5032584;28;20018;-70
2022/06/19 12:27:24;;;;;;;6.55;2.20;;;;;;;;;;5032977;28;20025;-70
2022/06/19 12:29:55;;;;;;;6.20;2.30;;;;;;;;;;5036659;28;20029;-70
2022/06/19 12:32:30;;;;;;;5.13;2.22;;;;;;;;;;5036587;28;20022;-70
2022/06/19 12:34:59;;;;;;;8.63;2.20;;;;;;;;;;5036471;28;20056;-70
2022/06/19 12:37:28;;;;;;;7.60;2.42;;;;;;;;;;5036832;28;20356;-70
2022/06/19 12:39:55;;;;;;;3.72;2.10;;;;;;;;;;5036705;28;20025;-69
2022/06/19 12:42:25;;;;;;;4.22;2.20;;;;;;;;;;5036523;28;20049;-70
2022/06/19 12:44:51;;;;;;;6.65;2.15;;;;;;;;;;5036646;28;20029;-70
2022/06/19 12:47:36;;;;;;;5.78;2.00;;;;;;;;;;5036227;28;20025;-70
2022/06/19 12:50:02;;;;;;;10.95;2.25;;;;;;;;;;5036582;28;20025;-70
2022/06/19 12:52:37;;;;;;;5.18;2.15;;;;;;;;;;5036701;28;20383;-70
2022/06/19 12:55:22;;;;;;;3.90;2.50;;;;;;;;;;5036465;28;20017;-70
2022/06/19 12:57:48;;;;;;;6.45;2.33;;;;;;;;;;5036474;28;20026;-69
2022/06/19 13:00:17;;;;;;;4.65;2.05;;;;;;;;;;5036077;28;20033;-71
2022/06/19 13:02:43;;;;;;;3.40;1.90;;;;;;;;;;5036178;28;20030;-70
2022/06/19 13:05:25;;;;;;;5.97;2.13;;;;;;;;;;5036128;28;20045;-70
2022/06/19 13:08:08;;;;;;;7.00;2.17;;;;;;;;;;5035691;28;20040;-71
2022/06/19 13:10:54;;;;;;;4.78;2.22;;;;;;;;;;5036241;28;20026;-71
2022/06/19 13:13:23;;;;;;;3.33;1.95;;;;;;;;;;5036089;28;20537;-71
2022/06/19 13:15:57;;;;;;;4.65;2.03;;;;;;;;;;5036187;28;20029;-71
2022/06/19 13:18:42;;;;;;;6.28;2.17;;;;;;;;;;5033798;28;20056;-70
2022/06/19 13:21:21;;;;;;;4.60;1.90;;;;;;;;;;5033012;28;20021;-71
2022/06/19 13:24:10;;;;;;;4.13;2.30;;;;;;;;;;5034089;28;20072;-71
2022/06/19 13:29:53;;;;;;;4.53;1.98;;;;;;;;;;5035828;28;20064;-70
2022/06/19 13:32:34;;;;;;;5.70;2.33;;;;;;;;;;5035794;28;20052;-71
2022/06/19 13:35:00;;;;;;;3.92;2.03;;;;;;;;;;5035603;28;20021;-72
2022/06/19 13:37:26;;;;;;;9.15;2.10;;;;;;;;;;5035547;28;20109;-71
2022/06/19 13:39:59;;;;;;;2.30;1.70;;;;;;;;;;5035145;28;20033;-70
2022/06/19 13:42:48;;;;;;;5.93;1.73;;;;;;;;;;5035564;28;20037;-70
2022/06/19 13:45:33;;;;;;;3.63;2.10;;;;;;;;;;5035633;28;20022;-71
2022/06/19 13:48:03;;;;;;;7.63;2.05;;;;;;;;;;5035688;28;20475;-71
2022/06/19 13:50:32;;;;;;;9.25;1.90;;;;;;;;;;5035500;28;20029;-73
2022/06/19 13:53:04;;;;;;;7.00;1.60;;;;;;;;;;5035221;28;20029;-72
2022/06/19 13:55:51;;;;;;;4.68;1.73;;;;;;;;;;5035466;28;20497;-72
2022/06/19 13:58:29;;;;;;;2.30;1.77;;;;;;;;;;5034209;28;20037;-71
2022/06/19 14:01:30;;;;;;;3.15;1.80;;;;;;;;;;5034262;28;20061;-71
2022/06/19 14:06:53;;;;;;;5.95;1.95;;;;;;;;;;5035266;28;20137;-71
2022/06/19 14:09:32;;;;;;;3.28;1.70;;;;;;;;;;5035247;28;20045;-71
2022/06/19 14:12:03;;;;;;;4.15;1.80;;;;;;;;;;5035070;28;20506;-71
2022/06/19 14:14:31;;;;;;;5.97;1.63;;;;;;;;;;5034920;28;20021;-71
2022/06/19 14:17:23;;;;;;;3.78;1.67;;;;;;;;;;5035211;28;20026;-70
2022/06/19 14:19:52;;;;;;;2.95;1.73;;;;;;;;;;5032981;28;20510;-71
2022/06/19 14:22:30;;;;;;;4.15;1.98;;;;;;;;;;5034574;28;20029;-72
2022/06/19 14:25:17;;;;;;;8.75;1.67;;;;;;;;;;5034810;28;20028;-71
2022/06/19 14:28:02;;;;;;;7.90;1.90;;;;;;;;;;5023723;28;20609;-71
2022/06/19 14:30:32;;;;;;;6.47;1.83;;;;;;;;;;5034841;28;20029;-71
2022/06/19 14:32:59;;;;;;;2.45;1.52;;;;;;;;;;5034661;28;20510;-71
2022/06/19 14:35:28;;;;;;;5.25;1.65;;;;;;;;;;5034625;28;20029;-71
2022/06/19 14:37:58;;;;;;;4.85;1.45;;;;;;;;;;5034540;28;20104;-71
2022/06/19 14:40:24;;;;;;;4.45;1.65;;;;;;;;;;5034627;28;20022;-71
2022/06/19 14:42:58;;;;;;;9.00;2.00;;;;;;;;;;5033353;28;20152;-71
2022/06/19 14:45:26;;;;;;;5.70;1.50;;;;;;;;;;5034582;28;20029;-71
2022/06/19 14:48:07;;;;;;;2.38;1.90;;;;;;;;;;5033411;28;20141;-72
2022/06/19 14:50:33;;;;;;;2.55;1.50;;;;;;;;;;5034216;28;20029;-72
2022/06/19 14:53:05;;;;;;;3.55;1.50;;;;;;;;;;5033222;28;20056;-71
2022/06/19 14:55:34;;;;;;;7.60;2.10;;;;;;;;;;5034099;28;20033;-71
2022/06/19 14:58:02;;;;;;;6.68;1.50;;;;;;;;;;5034551;28;20029;-71
2022/06/19 15:00:30;;;;;;;5.53;1.45;;;;;;;;;;5034024;28;20061;-71
2022/06/19 15:03:03;;;;;;;6.07;1.63;;;;;;;;;;5033961;28;20430;-73
2022/06/19 15:05:37;;;;;;;2.67;1.65;;;;;;;;;;5033662;28;20052;-72
2022/06/19 15:08:06;;;;;;;4.15;1.50;;;;;;;;;;5033856;28;20101;-72
2022/06/19 15:10:37;;;;;;;4.15;1.73;;;;;;;;;;5032237;28;20030;-76
2022/06/19 15:13:13;;;;;;;8.23;1.70;;;;;;;;;;5033555;28;20426;-71
2022/06/19 15:15:39;;;;;;;4.10;1.67;;;;;;;;;;5032924;28;20080;-71
2022/06/19 15:18:12;;;;;;;4.40;1.63;;;;;;;;;;5031131;28;20099;-71
2022/06/19 15:20:44;;;;;;;6.78;2.33;;;;;;;;;;5031261;28;20033;-71